| time (UTC) | temp C | wind direction | speed KPH | gust KPH | rain 1hr cm | rain 24hr cm | rain mn cm | humidity % | barometer mb |
| 20260510213037 | 20 | 253 | 9.7 | 22.5 | 0.00 | 0.30 | 0.00 | 59 | 1012.5 |
| 20260510211549 | 21 | 334 | 9.7 | 20.9 | 0.00 | 0.30 | 0.00 | 56 | 1012.4 |
| 20260510210050 | 21 | 253 | 9.7 | 19.3 | 0.00 | 0.30 | 0.00 | 53 | 1012.3 |
| 20260510204551 | 22 | 239 | 11.3 | 27.4 | 0.00 | 0.30 | 0.00 | 51 | 1012.1 |
| 20260510203034 | 22 | 248 | 6.4 | 16.1 | 0.00 | 0.30 | 0.00 | 50 | 1011.7 |
| 20260510201549 | 23 | 294 | 9.7 | 19.3 | 0.00 | 0.30 | 0.00 | 48 | 1011.7 |
| 20260510200035 | 23 | 283 | 9.7 | 24.1 | 0.00 | 0.30 | 0.00 | 48 | 1011.8 |
| 20260510194542 | 23 | 303 | 8.0 | 24.1 | 0.00 | 0.30 | 0.00 | 48 | 1011.9 |
| 20260510193050 | 23 | 299 | 4.8 | 19.3 | 0.00 | 0.30 | 0.00 | 49 | 1011.9 |
| 20260510191550 | 23 | 279 | 12.9 | 32.2 | 0.00 | 0.30 | 0.00 | 52 | 1012.0 |
| 20260510190055 | 23 | 312 | 9.7 | 22.5 | 0.00 | 0.36 | 0.00 | 54 | 1012.0 |
| 20260510184541 | 22 | 283 | 9.7 | 27.4 | 0.00 | 0.36 | 0.00 | 56 | 1012.1 |
| 20260510183025 | 22 | 324 | 6.4 | 16.1 | 0.00 | 0.36 | 0.00 | 56 | 1012.0 |
| 20260510181526 | 22 | 294 | 9.7 | 19.3 | 0.00 | 0.36 | 0.00 | 56 | 1012.0 |
| 20260510180032 | 22 | 291 | 9.7 | 16.1 | 0.00 | 0.36 | 0.00 | 60 | 1012.2 |
| 20260510174532 | 22 | 285 | 8.0 | 16.1 | 0.00 | 0.36 | 0.00 | 61 | 1012.1 |
| 20260510173044 | 22 | 243 | 1.6 | 14.5 | 0.00 | 0.36 | 0.00 | 62 | 1012.0 |
| 20260510171538 | 21 | 27 | 3.2 | 11.3 | 0.00 | 0.36 | 0.00 | 64 | 1012.0 |
| 20260510170048 | 21 | 250 | 3.2 | 6.4 | 0.00 | 0.36 | 0.00 | 67 | 1012.1 |
| 20260510164553 | 20 | 283 | 1.6 | 12.9 | 0.00 | 0.36 | 0.00 | 67 | 1012.3 |
| 20260510163037 | 19 | 336 | 3.2 | 11.3 | 0.00 | 0.36 | 0.00 | 71 | 1012.6 |
| 20260510161535 | 18 | 185 | 1.6 | 9.7 | 0.00 | 0.36 | 0.00 | 72 | 1012.6 |
| 20260510160034 | 17 | 163 | 1.6 | 11.3 | 0.00 | 0.36 | 0.00 | 76 | 1012.6 |
| 20260510154545 | 17 | 147 | 4.8 | 8.0 | 0.00 | 0.36 | 0.00 | 75 | 1012.7 |
| 20260510153057 | 17 | 245 | 4.8 | 11.3 | 0.00 | 0.36 | 0.00 | 78 | 1013.0 |
| 20260510151542 | 16 | 85 | 1.6 | 6.4 | 0.00 | 0.36 | 0.00 | 80 | 1012.9 |
| 20260510150055 | 15 | 132 | 4.8 | 8.0 | 0.00 | 0.36 | 0.00 | 81 | 1012.9 |
| 20260510144554 | 15 | 206 | 1.6 | 8.0 | 0.00 | 0.36 | 0.00 | 82 | 1013.0 |
| 20260510143103 | 15 | 179 | 1.6 | 6.4 | 0.00 | 0.36 | 0.00 | 83 | 1012.9 |
| 20260510141530 | 15 | 256 | 3.2 | 8.0 | 0.00 | 0.36 | 0.00 | 83 | 1012.9 |
| 20260510140034 | 14 | 183 | 1.6 | 8.0 | 0.00 | 0.36 | 0.00 | 85 | 1012.8 |
| 20260510134522 | 14 | 181 | 1.6 | 9.7 | 0.00 | 0.36 | 0.00 | 86 | 1012.6 |
| 20260510133027 | 13 | 269 | 1.6 | 8.0 | 0.00 | 0.36 | 0.00 | 87 | 1012.7 |
| 20260510131531 | 13 | 195 | 3.2 | 6.4 | 0.00 | 0.36 | 0.00 | 86 | 1012.6 |
| 20260510130038 | 13 | 128 | 3.2 | 6.4 | 0.00 | 0.36 | 0.00 | 87 | 1012.3 |
| 20260510124552 | 13 | 116 | 1.6 | 6.4 | 0.00 | 0.36 | 0.00 | 87 | 1012.2 |
| 20260510123056 | 13 | 166 | 0.0 | 6.4 | 0.00 | 0.36 | 0.00 | 87 | 1012.0 |
| 20260510121600 | 13 | 237 | 0.0 | 6.4 | 0.00 | 0.36 | 0.00 | 88 | 1011.9 |
| 20260510121502 | 13 | 237 | 1.6 | 6.4 | 0.00 | 0.36 | 0.00 | 88 | 1012.0 |
| 20260510120010 | 13 | 106 | 0.0 | 3.2 | 0.00 | 0.36 | 0.00 | 89 | 1011.9 |
| 20260510114512 | 12 | 106 | 0.0 | 3.2 | 0.00 | 0.36 | 0.00 | 90 | 1011.7 |
| 20260510113013 | 12 | 106 | 0.0 | 3.2 | 0.00 | 0.36 | 0.00 | 91 | 1011.8 |
| 20260510111552 | 12 | 106 | 3.2 | 6.4 | 0.00 | 0.36 | 0.00 | 90 | 1011.6 |
| 20260510110056 | 12 | 106 | 0.0 | 4.8 | 0.00 | 0.36 | 0.00 | 92 | 1011.0 |
| 20260510104601 | 12 | 49 | 0.0 | 4.8 | 0.00 | 0.36 | 0.00 | 92 | 1011.0 |
| 20260510103007 | 11 | 37 | 1.6 | 4.8 | 0.00 | 0.36 | 0.00 | 92 | 1011.2 |
| 20260510101509 | 11 | 37 | 0.0 | 4.8 | 0.00 | 0.36 | 0.00 | 92 | 1011.4 |
| 20260510100028 | 11 | 51 | 1.6 | 6.4 | 0.00 | 0.36 | 0.00 | 92 | 1011.1 |
| 20260510094518 | 11 | 52 | 1.6 | 6.4 | 0.00 | 0.36 | 0.00 | 92 | 1011.2 |
| 20260510093019 | 11 | 34 | 3.2 | 8.0 | 0.00 | 0.36 | 0.00 | 92 | 1011.4 |
| 20260510091526 | 11 | 33 | 3.2 | 6.4 | 0.00 | 0.36 | 0.00 | 92 | 1011.7 |
| 20260510090037 | 11 | 62 | 6.4 | 12.9 | 0.00 | 0.36 | 0.00 | 92 | 1011.5 |
| 20260510084551 | 11 | 27 | 3.2 | 12.9 | 0.00 | 0.36 | 0.00 | 93 | 1011.5 |
| 20260510083041 | 11 | 11 | 3.2 | 6.4 | 0.00 | 0.36 | 0.00 | 93 | 1011.4 |
| 20260510081553 | 11 | 23 | 0.0 | 4.8 | 0.00 | 0.36 | 0.00 | 93 | 1010.8 |
| 20260510080047 | 11 | 23 | 0.0 | 3.2 | 0.00 | 0.36 | 0.00 | 93 | 1010.7 |
| 20260510074547 | 11 | 23 | 3.2 | 6.4 | 0.00 | 0.36 | 0.00 | 93 | 1010.6 |
| 20260510073101 | 11 | 57 | 1.6 | 4.8 | 0.00 | 0.36 | 0.00 | 94 | 1010.4 |
| 20260510071555 | 11 | 34 | 0.0 | 4.8 | 0.00 | 0.36 | 0.00 | 93 | 1010.5 |
| 20260510070057 | 11 | 354 | 1.6 | 4.8 | 0.00 | 0.36 | 0.00 | 93 | 1010.6 |
| 20260510064508 | 10 | 359 | 3.2 | 4.8 | 0.00 | 0.36 | 0.00 | 93 | 1010.6 |
| 20260510063007 | 11 | 104 | 1.6 | 4.8 | 0.00 | 0.36 | 0.00 | 92 | 1010.4 |
| 20260510061513 | 10 | 104 | 0.0 | 3.2 | 0.00 | 0.36 | 0.00 | 92 | 1010.3 |
| 20260510060014 | 11 | 104 | 1.6 | 3.2 | 0.00 | 0.36 | 0.00 | 91 | 1010.3 |
| 20260510054517 | 11 | 104 | 0.0 | 3.2 | 0.00 | 0.36 | 0.00 | 91 | 1010.4 |
| 20260510053007 | 11 | 104 | 0.0 | 3.2 | 0.00 | 0.36 | 0.00 | 91 | 1010.5 |
| 20260510051509 | 11 | 104 | 0.0 | 1.6 | 0.00 | 0.36 | 0.00 | 91 | 1010.5 |
| 20260510050009 | 11 | 104 | 0.0 | 3.2 | 0.00 | 0.36 | 0.00 | 91 | 1010.6 |
| 20260510044527 | 11 | 104 | 0.0 | 3.2 | 0.00 | 0.36 | 0.00 | 90 | 1010.7 |
| 20260510043021 | 11 | 104 | 0.0 | 1.6 | 0.00 | 0.36 | 0.00 | 90 | 1010.7 |
| 20260510041506 | 11 | 104 | 1.6 | 4.8 | 0.00 | 0.36 | 0.00 | 91 | 1010.7 |
| 20260510040015 | 11 | 104 | 1.6 | 3.2 | 0.00 | 0.36 | 0.36 | 90 | 1010.6 |
| 20260510034548 | 11 | 104 | 0.0 | 1.6 | 0.00 | 0.36 | 0.36 | 90 | 1010.5 |
| 20260510033034 | 12 | 104 | 0.0 | 3.2 | 0.00 | 0.36 | 0.36 | 90 | 1010.3 |
| 20260510031537 | 12 | 104 | 0.0 | 3.2 | 0.00 | 0.36 | 0.36 | 91 | 1010.5 |
| 20260510030045 | 11 | 104 | 0.0 | 1.6 | 0.00 | 0.36 | 0.36 | 90 | 1010.2 |
| 20260510024548 | 12 | 104 | 0.0 | 3.2 | 0.00 | 0.36 | 0.36 | 91 | 1010.4 |
| 20260510023052 | 12 | 104 | 0.0 | 1.6 | 0.00 | 0.36 | 0.36 | 90 | 1010.5 |
| 20260510021600 | 12 | 104 | 0.0 | 1.6 | 0.00 | 0.36 | 0.36 | 90 | 1010.5 |
| 20260510020005 | 12 | 104 | 1.6 | 3.2 | 0.00 | 0.36 | 0.36 | 89 | 1010.4 |
| 20260510014512 | 12 | 104 | 0.0 | 1.6 | 0.00 | 0.36 | 0.36 | 89 | 1010.5 |
| 20260510013018 | 12 | 104 | 0.0 | 1.6 | 0.00 | 0.36 | 0.36 | 89 | 1010.3 |
| 20260510011537 | 12 | 104 | 1.6 | 3.2 | 0.00 | 0.36 | 0.36 | 89 | 1010.5 |
| 20260510010010 | 12 | 104 | 0.0 | 1.6 | 0.00 | 0.36 | 0.36 | 88 | 1010.1 |
| 20260510004516 | 12 | 104 | 0.0 | 1.6 | 0.00 | 0.36 | 0.36 | 88 | 1010.0 |
| 20260510003025 | 13 | 104 | 0.0 | 1.6 | 0.00 | 0.36 | 0.36 | 87 | 1010.0 |
| 20260510001527 | 13 | 104 | 0.0 | 1.6 | 0.00 | 0.36 | 0.36 | 86 | 1009.8 |
| 20260510000054 | 13 | 104 | 0.0 | 1.6 | 0.00 | 0.36 | 0.36 | 85 | 1009.7 |
| 20260509234545 | 13 | 104 | 1.6 | 3.2 | 0.00 | 0.36 | 0.36 | 86 | 1009.6 |
| 20260509233034 | 13 | 104 | 0.0 | 3.2 | 0.00 | 0.36 | 0.36 | 85 | 1009.5 |
| 20260509231538 | 13 | 104 | 1.6 | 4.8 | 0.00 | 0.36 | 0.36 | 85 | 1009.6 |
| 20260509230046 | 13 | 104 | 1.6 | 4.8 | 0.10 | 0.36 | 0.36 | 86 | 1009.7 |
| 20260509224548 | 13 | 104 | 3.2 | 6.4 | 0.15 | 0.36 | 0.36 | 86 | 1009.9 |
| 20260509223059 | 13 | 195 | 1.6 | 4.8 | 0.30 | 0.36 | 0.36 | 85 | 1009.9 |
| 20260509221556 | 13 | 195 | 0.0 | 4.8 | 0.30 | 0.36 | 0.36 | 85 | 1010.3 |
| 20260509221502 | 13 | 195 | 0.0 | 4.8 | 0.30 | 0.36 | 0.36 | 85 | 1010.3 |
| 20260509220050 | 13 | 299 | 0.0 | 4.8 | 0.20 | 0.25 | 0.25 | 84 | 1010.5 |
| 20260509214547 | 13 | 359 | 1.6 | 4.8 | 0.15 | 0.20 | 0.20 | 80 | 1010.3 |